Latest Weather Observations for Warburto Point

IDS60801

Issued at 6:02 pm CST Thursday 9 April 2020 (issued every 10 minutes, with the page automatically refreshed every 10 minutes)

About weather observations | Map of weather stations | Latest weather observations for SA | Other Formats
Station Details ID: 022053 Name: WARBURTO POINT Lat: -34.00 Lon: 137.53 Height: 1.0 m
Data from the previous 72 hours. | See also: Recent months at Warburto Point
Date/Time
CST
Temp
°C
App
Temp
°C
Dew
Point
°C
Rel
Hum
%
Delta-T
°C
Wind Press
QNH
hPa
Press
MSL
hPa
Rain since
9am
mm
Dir  Spd
km/h
Gust
km/h
Spd
kts
Gust
kts
09/05:30pm - - - - - SW 24 30 13 16 - - -
09/05:00pm - - - - - SW 26 32 14 17 - - -
09/04:30pm - - - - - SW 26 32 14 17 - - -
09/04:00pm - - - - - SW 22 28 12 15 - - -
09/03:30pm - - - - - SW 24 28 13 15 - - -
09/03:00pm - - - - - SW 22 30 12 16 - - -
09/02:30pm - - - - - SW 24 32 13 17 - - -
09/02:00pm - - - - - WSW 24 30 13 16 - - -
09/01:30pm - - - - - WSW 24 28 13 15 - - -
09/01:00pm - - - - - SW 20 26 11 14 - - -
09/12:30pm - - - - - W 19 24 10 13 - - -
09/12:00pm - - - - - W 17 20 9 11 - - -
09/11:30am - - - - - SSW 11 15 6 8 - - -
09/11:00am - - - - - S 13 15 7 8 - - -
09/10:30am - - - - - SSE 13 22 7 12 - - -
09/10:00am - - - - - E 15 20 8 11 - - -
09/09:30am - - - - - E 17 24 9 13 - - -
09/09:00am - - - - - ESE 22 28 12 15 - - -
09/08:30am - - - - - ESE 24 30 13 16 - - -
09/08:00am - - - - - ESE 19 24 10 13 - - -
09/07:30am - - - - - ESE 17 22 9 12 - - -
09/07:00am - - - - - ESE 15 19 8 10 - - -
09/06:30am - - - - - ESE 17 22 9 12 - - -
09/06:00am - - - - - ESE 15 17 8 9 - - -
09/05:30am - - - - - ESE 15 19 8 10 - - -
09/05:00am - - - - - ESE 15 17 8 9 - - -
09/04:30am - - - - - ESE 15 17 8 9 - - -
09/04:00am - - - - - ESE 15 17 8 9 - - -
09/03:30am - - - - - ESE 15 17 8 9 - - -
09/03:00am - - - - - ESE 13 17 7 9 - - -
09/02:30am - - - - - ESE 13 15 7 8 - - -
09/02:00am - - - - - ESE 15 17 8 9 - - -
09/01:30am - - - - - ESE 19 22 10 12 - - -
09/01:00am - - - - - ESE 17 22 9 12 - - -
09/12:30am - - - - - ESE 17 22 9 12 - - -
09/12:00am - - - - - ESE 20 28 11 15 - - -
 
Date/Time
CST
Temp
°C
App
Temp
°C
Dew
Point
°C
Rel
Hum
%
Delta-T
°C
Wind Press
QNH
hPa
Press
MSL
hPa
Rain since
9am
mm
Dir  Spd
km/h
Gust
km/h
Spd
kts
Gust
kts
08/11:30pm - - - - - ESE 22 28 12 15 - - -
08/11:00pm - - - - - ESE 22 30 12 16 - - -
08/10:30pm - - - - - SE 22 30 12 16 - - -
08/10:00pm - - - - - SE 24 30 13 16 - - -
08/09:30pm - - - - - SE 26 33 14 18 - - -
08/09:00pm - - - - - SE 26 32 14 17 - - -
08/08:30pm - - - - - SE 22 30 12 16 - - -
08/08:00pm - - - - - SSE 20 28 11 15 - - -
08/07:30pm - - - - - SSE 26 32 14 17 - - -
08/07:00pm - - - - - SSE 26 33 14 18 - - -
08/06:30pm - - - - - SE 26 32 14 17 - - -
08/06:00pm - - - - - SSE 28 33 15 18 - - -
08/05:30pm - - - - - SSE 28 35 15 19 - - -
08/05:00pm - - - - - SSE 22 28 12 15 - - -
08/04:30pm - - - - - SE 20 28 11 15 - - -
08/04:00pm - - - - - SSE 19 24 10 13 - - -
08/03:30pm - - - - - SSE 19 26 10 14 - - -
08/03:00pm - - - - - SSE 17 22 9 12 - - -
08/02:30pm - - - - - S 15 22 8 12 - - -
08/02:00pm - - - - - SSE 17 20 9 11 - - -
08/01:30pm - - - - - SSE 13 19 7 10 - - -
08/01:00pm - - - - - SSE 15 26 8 14 - - -
08/12:30pm - - - - - SE 19 30 10 16 - - -
08/12:00pm - - - - - ESE 19 30 10 16 - - -
08/11:30am - - - - - ESE 22 32 12 17 - - -
08/11:00am - - - - - E 22 32 12 17 - - -
08/10:30am - - - - - ESE 24 30 13 16 - - -
08/10:00am - - - - - ESE 24 32 13 17 - - -
08/09:30am - - - - - ESE 26 32 14 17 - - -
08/09:00am - - - - - ESE 28 32 15 17 - - -
08/08:30am - - - - - ESE 24 32 13 17 - - -
08/08:00am - - - - - ESE 28 35 15 19 - - -
08/07:30am - - - - - ESE 22 32 12 17 - - -
08/07:00am - - - - - ESE 15 19 8 10 - - -
08/06:30am - - - - - SE 13 17 7 9 - - -
08/06:00am - - - - - SSE 13 17 7 9 - - -
08/05:30am - - - - - SSE 15 19 8 10 - - -
08/05:00am - - - - - SSE 15 19 8 10 - - -
08/04:30am - - - - - SSE 15 19 8 10 - - -
08/04:00am - - - - - SSE 17 19 9 10 - - -
08/03:30am - - - - - SSE 17 20 9 11 - - -
08/03:00am - - - - - SSE 17 20 9 11 - - -
08/02:30am - - - - - SSE 19 22 10 12 - - -
08/02:00am - - - - - SSE 17 20 9 11 - - -
08/01:30am - - - - - SSE 19 26 10 14 - - -
08/01:00am - - - - - SSE 20 26 11 14 - - -
08/12:30am - - - - - SE 26 30 14 16 - - -
08/12:00am - - - - - SSE 26 35 14 19 - - -
 
Date/Time
CST
Temp
°C
App
Temp
°C
Dew
Point
°C
Rel
Hum
%
Delta-T
°C
Wind Press
QNH
hPa
Press
MSL
hPa
Rain since
9am
mm
Dir  Spd
km/h
Gust
km/h
Spd
kts
Gust
kts
07/11:30pm - - - - - SE 28 33 15 18 - - -
07/11:00pm - - - - - SE 26 33 14 18 - - -
07/10:30pm - - - - - SE 26 33 14 18 - - -
07/10:00pm - - - - - SE 24 30 13 16 - - -
07/09:30pm - - - - - SE 26 32 14 17 - - -
07/09:00pm - - - - - SE 26 32 14 17 - - -
07/08:30pm - - - - - SSE 28 33 15 18 - - -
07/08:00pm - - - - - SSE 30 35 16 19 - - -
07/07:30pm - - - - - SSE 30 37 16 20 - - -
07/07:00pm - - - - - SSE 26 32 14 17 - - -
07/06:30pm - - - - - SSE 24 32 13 17 - - -
07/06:00pm - - - - - SSE 30 35 16 19 - - -
07/05:30pm - - - - - SE 19 28 10 15 - - -
07/05:00pm - - - - - SW 28 33 15 18 - - -
07/04:30pm - - - - - SSW 28 35 15 19 - - -
07/04:00pm - - - - - SW 28 33 15 18 - - -
07/03:30pm - - - - - SSW 26 33 14 18 - - -
07/03:00pm - - - - - SSW 26 33 14 18 - - -
07/02:30pm - - - - - SW 22 32 12 17 - - -
07/02:00pm - - - - - SW 22 28 12 15 - - -
07/01:30pm - - - - - SW 19 24 10 13 - - -
07/01:00pm - - - - - SW 20 26 11 14 - - -
07/12:30pm - - - - - SW 19 24 10 13 - - -
07/12:00pm - - - - - SW 15 19 8 10 - - -
07/11:30am - - - - - SW 13 19 7 10 - - -
07/11:00am - - - - - SW 11 13 6 7 - - -
07/10:30am - - - - - SSW 11 15 6 8 - - -
07/10:00am - - - - - S 11 13 6 7 - - -
07/09:30am - - - - - S 9 13 5 7 - - -
07/09:00am - - - - - S 11 13 6 7 - - -
07/08:30am - - - - - SSE 11 13 6 7 - - -
07/08:00am - - - - - SSE 9 11 5 6 - - -
07/07:30am - - - - - SSE 9 11 5 6 - - -
07/07:00am - - - - - SSE 9 11 5 6 - - -
07/06:30am - - - - - SSE 9 11 5 6 - - -
07/06:00am - - - - - SSE 11 13 6 7 - - -
07/05:30am - - - - - SSE 11 13 6 7 - - -
07/05:00am - - - - - S 13 15 7 8 - - -
07/04:30am - - - - - SSE 11 15 6 8 - - -
07/04:00am - - - - - SSE 13 17 7 9 - - -
07/03:30am - - - - - SSE 13 15 7 8 - - -
07/03:00am - - - - - SSE 11 13 6 7 - - -
07/02:30am - - - - - SSE 13 15 7 8 - - -
07/02:00am - - - - - SSE 15 17 8 9 - - -
07/01:30am - - - - - SE 13 15 7 8 - - -
07/01:00am - - - - - SE 11 15 6 8 - - -
07/12:30am - - - - - SE 9 9 5 5 - - -
07/12:00am - - - - - SE 7 11 4 6 - - -
 
Date/Time
CST
Temp
°C
App
Temp
°C
Dew
Point
°C
Rel
Hum
%
Delta-T
°C
Wind Press
QNH
hPa
Press
MSL
hPa
Rain since
9am
mm
Dir  Spd
km/h
Gust
km/h
Spd
kts
Gust
kts
06/11:30pm - - - - - SSE 13 17 7 9 - - -
06/11:00pm - - - - - SSE 15 17 8 9 - - -
06/10:30pm - - - - - SSE 15 17 8 9 - - -
06/10:00pm - - - - - SSE 13 17 7 9 - - -
06/09:30pm - - - - - SSE 17 19 9 10 - - -
06/09:00pm - - - - - SSE 19 20 10 11 - - -
06/08:30pm - - - - - SSE 19 24 10 13 - - -
06/08:00pm - - - - - SSE 22 28 12 15 - - -
06/07:30pm - - - - - SSE 22 28 12 15 - - -
06/07:00pm - - - - - SSE 19 24 10 13 - - -
06/06:30pm - - - - - S 19 24 10 13 - - -

Other formats

Comma delimited format used in spreadsheet applications
http://www.bom.gov.au/fwo/IDS60801/IDS60801.94666.axf

JavaScript Object Notation format (JSON) in row-major order
http://www.bom.gov.au/fwo/IDS60801/IDS60801.94666.json

Data quality

Most of these data are generated automatically and are frequently updated. Quality checks on data are not normally performed. It is possible for incorrect values to appear. Refer to information at About Latest Weather Observations and please check the disclaimer before using these data.